createdAt,value
2023-04-14T00:00:32.110Z,6.33
2023-04-14T00:05:35.054Z,6.35
2023-04-14T00:10:36.619Z,6.37
2023-04-14T00:15:41.144Z,6.38
2023-04-14T00:20:42.604Z,6.39
2023-04-14T00:25:44.135Z,6.43
2023-04-14T00:30:45.742Z,6.44
2023-04-14T00:35:47.331Z,6.45
2023-04-14T00:40:48.849Z,6.43
2023-04-14T00:45:51.159Z,6.41
2023-04-14T00:50:52.705Z,6.39
2023-04-14T00:55:54.265Z,6.40
2023-04-14T01:00:56.093Z,6.38
2023-04-14T01:12:47.839Z,6.39
2023-04-14T01:17:57.742Z,6.38
2023-04-14T01:23:06.975Z,6.35
2023-04-14T01:28:26.074Z,6.33
2023-04-14T01:33:34.123Z,6.32
2023-04-14T01:38:38.821Z,6.27
2023-04-14T01:43:44.000Z,6.27
2023-04-14T01:48:46.478Z,6.28
2023-04-14T01:53:50.686Z,6.28
2023-04-14T01:58:54.729Z,6.27
2023-04-14T02:03:58.389Z,6.27
2023-04-14T02:09:02.608Z,6.29
2023-04-14T02:14:05.946Z,6.33
2023-04-14T02:19:07.711Z,6.33
2023-04-14T02:24:09.234Z,6.32
2023-04-14T02:29:13.911Z,6.25
2023-04-14T02:34:18.832Z,6.21
2023-04-14T02:39:24.902Z,6.15
2023-04-14T02:44:31.108Z,6.11
2023-04-14T02:49:38.407Z,6.11
2023-04-14T02:54:42.615Z,6.09
2023-04-14T02:59:47.186Z,6.06
2023-04-14T03:04:49.368Z,6.05
2023-04-14T03:09:51.797Z,6.06
2023-04-14T03:14:54.047Z,6.03
2023-04-14T03:19:56.421Z,6.02
2023-04-14T03:24:59.033Z,6.02
2023-04-14T03:30:04.347Z,6.00
2023-04-14T03:35:07.818Z,5.95
2023-04-14T03:40:11.140Z,5.92
2023-04-14T03:45:12.940Z,5.87
2023-04-14T03:50:18.152Z,5.87
2023-04-14T03:55:19.856Z,5.85
2023-04-14T04:00:22.622Z,5.84
2023-04-14T04:05:24.283Z,5.82
2023-04-14T04:10:26.046Z,5.70
2023-04-14T04:15:30.932Z,5.76
2023-04-14T04:20:34.556Z,5.73
2023-04-14T04:25:38.504Z,5.66
2023-04-14T04:30:42.722Z,5.62
2023-04-14T04:35:46.139Z,5.63
2023-04-14T04:40:47.618Z,5.60
2023-04-14T04:46:02.427Z,5.56
2023-04-14T04:51:04.076Z,5.56
2023-04-14T04:56:06.054Z,5.57
2023-04-14T05:01:11.095Z,5.61
2023-04-14T05:06:13.321Z,5.62
2023-04-14T05:11:14.923Z,5.66
2023-04-14T05:16:17.239Z,5.66
2023-04-14T05:21:19.357Z,5.72
2023-04-14T05:26:44.741Z,5.78
2023-04-14T05:31:43.712Z,5.78
2023-04-14T05:36:45.438Z,5.88
2023-04-14T05:41:47.005Z,5.91
2023-04-14T05:46:48.496Z,5.97
2023-04-14T05:51:50.033Z,6.08
2023-04-14T05:56:51.552Z,6.17
2023-04-14T06:01:53.101Z,6.28
2023-04-14T06:06:54.611Z,6.40
2023-04-14T06:11:56.765Z,6.54
2023-04-14T06:16:58.353Z,6.66
2023-04-14T06:21:59.872Z,6.81
2023-04-14T06:27:03.724Z,6.97
2023-04-14T06:32:05.595Z,7.25
2023-04-14T06:37:07.114Z,8.02
2023-04-14T06:42:12.944Z,8.56
2023-04-14T06:47:19.106Z,8.67
2023-04-14T06:52:20.566Z,9.03
2023-04-14T06:57:22.094Z,10.40
2023-04-14T07:02:23.660Z,10.35
2023-04-14T07:07:28.038Z,10.32
2023-04-14T07:12:29.634Z,10.87
2023-04-14T07:17:31.408Z,10.87
2023-04-14T07:22:33.307Z,10.47
2023-04-14T07:27:34.827Z,10.35
2023-04-14T07:32:36.358Z,10.22
2023-04-14T07:37:37.882Z,10.13
2023-04-14T07:42:39.324Z,10.15
2023-04-14T07:47:40.805Z,10.18
2023-04-14T07:52:42.346Z,10.17
2023-04-14T07:57:43.847Z,10.23
2023-04-14T08:02:45.651Z,10.21
2023-04-14T08:07:49.464Z,10.30
2023-04-14T08:12:51.016Z,10.41
2023-04-14T08:17:52.491Z,10.59
2023-04-14T08:22:55.480Z,10.65
2023-04-14T08:27:56.932Z,10.70
2023-04-14T08:32:59.042Z,10.78
2023-04-14T08:38:01.595Z,10.89
2023-04-14T08:43:03.569Z,10.88
2023-04-14T08:48:06.161Z,10.90
2023-04-14T08:53:10.135Z,10.92
2023-04-14T08:58:11.695Z,11.07
2023-04-14T09:03:14.163Z,11.23
2023-04-14T09:08:16.821Z,11.34
2023-04-14T09:13:20.885Z,11.30
2023-04-14T09:18:22.942Z,11.20
2023-04-14T09:23:25.267Z,11.10
2023-04-14T09:28:26.780Z,11.20
2023-04-14T09:33:28.841Z,11.42
2023-04-14T09:38:39.617Z,11.49
2023-04-14T09:43:42.254Z,11.58
2023-04-14T09:48:53.325Z,11.72
2023-04-14T09:53:55.750Z,11.93
2023-04-14T09:58:59.915Z,12.05
2023-04-14T10:04:02.833Z,12.07
2023-04-14T10:09:05.819Z,12.16
2023-04-14T10:14:07.925Z,12.16
2023-04-14T10:19:09.420Z,12.37
2023-04-14T10:24:12.770Z,12.47
2023-04-14T10:29:14.254Z,12.40
2023-04-14T10:34:16.211Z,12.35
2023-04-14T10:39:24.350Z,12.50
2023-04-14T10:44:34.717Z,12.35
2023-04-14T10:49:41.514Z,12.37
2023-04-14T10:55:07.710Z,12.56
2023-04-14T11:00:30.132Z,12.74
2023-04-14T11:05:35.668Z,12.93
2023-04-14T11:10:37.596Z,13.01
2023-04-14T11:15:52.248Z,13.08
2023-04-14T11:20:54.674Z,13.27
2023-04-14T11:25:58.025Z,13.11
2023-04-14T11:31:01.137Z,13.11
2023-04-14T11:36:04.560Z,12.92
2023-04-14T11:41:06.961Z,12.82
2023-04-14T11:46:08.886Z,12.97
2023-04-14T11:51:10.539Z,12.98
2023-04-14T11:56:13.262Z,12.96
2023-04-14T12:01:15.171Z,12.75
2023-04-14T12:06:16.837Z,12.76
2023-04-14T12:11:18.351Z,12.62
2023-04-14T12:16:20.049Z,12.60
2023-04-14T12:21:21.559Z,12.64
2023-04-14T12:26:25.738Z,12.65
2023-04-14T12:31:29.828Z,12.63
2023-04-14T12:36:47.852Z,12.78
2023-04-14T12:41:51.005Z,12.78
2023-04-14T12:46:53.833Z,12.68
2023-04-14T12:51:55.489Z,12.64
2023-04-14T12:56:57.178Z,12.52
2023-04-14T13:01:58.800Z,12.46
2023-04-14T13:07:00.322Z,12.36
2023-04-14T13:12:01.908Z,12.47
2023-04-14T13:17:03.519Z,12.46
2023-04-14T13:22:05.529Z,12.55
2023-04-14T13:27:07.258Z,12.58
2023-04-14T13:32:12.396Z,12.49
2023-04-14T13:37:13.964Z,12.50
2023-04-14T13:42:15.434Z,12.62
2023-04-14T13:47:18.799Z,12.75
2023-04-14T13:52:20.402Z,12.63
2023-04-14T13:57:21.925Z,12.59
2023-04-14T14:02:23.969Z,12.54
2023-04-14T14:07:25.842Z,12.52
2023-04-14T14:12:27.748Z,12.65
2023-04-14T14:17:29.341Z,12.66
2023-04-14T14:22:31.140Z,12.78
2023-04-14T14:27:32.666Z,12.79
2023-04-14T14:32:34.173Z,12.70
2023-04-14T14:37:35.694Z,12.76
2023-04-14T14:42:37.375Z,12.75
2023-04-14T14:47:39.337Z,12.72
2023-04-14T14:52:41.336Z,12.81
2023-04-14T14:57:43.119Z,12.81
2023-04-14T15:02:44.933Z,12.83
2023-04-14T15:07:46.797Z,12.83
2023-04-14T15:12:48.386Z,12.88
2023-04-14T15:17:49.899Z,12.74
2023-04-14T15:22:51.399Z,12.59
2023-04-14T15:27:52.916Z,12.61
2023-04-14T15:32:54.453Z,12.65
2023-04-14T15:37:56.917Z,12.63
2023-04-14T15:42:58.433Z,12.70
2023-04-14T15:47:59.984Z,12.78
2023-04-14T15:53:01.505Z,12.81
2023-04-14T15:58:04.104Z,12.77
2023-04-14T16:03:05.930Z,12.72
2023-04-14T16:08:07.475Z,12.65
2023-04-14T16:13:08.984Z,12.54
2023-04-14T16:18:10.493Z,12.59
2023-04-14T16:23:12.019Z,12.52
2023-04-14T16:28:15.942Z,12.45
2023-04-14T16:33:17.545Z,12.40
2023-04-14T16:38:19.112Z,12.44
2023-04-14T16:43:23.750Z,12.50
2023-04-14T16:48:25.648Z,12.43
2023-04-14T16:53:30.428Z,12.42
2023-04-14T16:58:32.483Z,12.43
2023-04-14T17:03:36.162Z,12.23
2023-04-14T17:08:57.682Z,12.40
2023-04-14T17:14:02.512Z,12.29
2023-04-14T17:19:14.580Z,12.01
2023-04-14T17:24:16.251Z,12.13
2023-04-14T17:29:36.181Z,12.05
2023-04-14T17:34:52.735Z,11.93
2023-04-14T17:40:08.213Z,11.94
2023-04-14T17:45:23.330Z,11.88
2023-04-14T17:50:41.531Z,12.22
2023-04-14T17:55:43.626Z,11.74
2023-04-14T18:00:47.989Z,11.80
2023-04-14T18:06:01.713Z,11.75
2023-04-14T18:11:12.660Z,11.68
2023-04-14T18:16:14.378Z,11.91
2023-04-14T18:21:16.403Z,11.74
2023-04-14T18:26:27.009Z,11.82
2023-04-14T18:31:32.047Z,11.57
2023-04-14T18:36:33.664Z,11.43
2023-04-14T18:41:55.441Z,11.32
2023-04-14T18:47:04.872Z,11.63
2023-04-14T18:52:09.198Z,11.60
2023-04-14T18:57:20.031Z,11.63
2023-04-14T19:02:21.773Z,11.42
2023-04-14T19:07:23.595Z,11.57
2023-04-14T19:12:39.756Z,11.50
2023-04-14T19:17:53.203Z,11.04
2023-04-14T19:22:59.952Z,11.33
2023-04-14T19:28:02.315Z,11.24
2023-04-14T19:33:09.513Z,11.20
2023-04-14T19:43:29.696Z,11.06
2023-04-14T19:48:37.364Z,10.73
2023-04-14T19:53:48.033Z,10.80
2023-04-14T20:04:18.403Z,10.93
2023-04-14T20:09:20.756Z,11.00
2023-04-14T20:14:38.237Z,10.94
2023-04-14T20:19:44.998Z,10.92
2023-04-14T20:24:46.707Z,10.81
2023-04-14T20:29:48.426Z,10.83
2023-04-14T20:34:59.993Z,10.73
2023-04-14T20:40:13.725Z,10.84
2023-04-14T20:45:18.156Z,10.72
2023-04-14T20:50:26.792Z,10.67
2023-04-14T20:55:28.543Z,10.50
2023-04-14T21:00:31.927Z,10.50
2023-04-14T21:05:34.700Z,10.55
2023-04-14T21:11:14.920Z,10.55
2023-04-14T21:15:58.143Z,10.30
2023-04-14T21:20:59.676Z,10.27
2023-04-14T21:26:04.267Z,10.40
2023-04-14T21:31:06.786Z,10.29
2023-04-14T21:36:09.798Z,10.32
2023-04-14T21:41:11.595Z,10.02
2023-04-14T21:46:13.810Z,10.07
2023-04-14T21:56:47.523Z,9.89
2023-04-14T22:01:59.179Z,9.99
2023-04-14T22:07:02.512Z,9.93
2023-04-14T22:12:05.032Z,9.66
2023-04-14T22:17:26.109Z,9.52
2023-04-14T22:22:27.900Z,9.64
2023-04-14T22:27:29.493Z,9.55
2023-04-14T22:32:32.332Z,9.51
2023-04-14T22:37:33.986Z,9.33
2023-04-14T22:42:41.920Z,9.39
2023-04-14T22:47:43.568Z,9.25
2023-04-14T22:52:45.601Z,9.24
2023-04-14T22:57:47.456Z,9.25
2023-04-14T23:03:03.614Z,9.11
2023-04-14T23:08:05.631Z,9.22
2023-04-14T23:13:11.928Z,9.10
2023-04-14T23:18:13.928Z,9.14
2023-04-14T23:23:21.563Z,9.24
2023-04-14T23:28:23.043Z,9.24
2023-04-14T23:33:24.688Z,9.20
2023-04-14T23:38:26.308Z,9.09
2023-04-14T23:43:43.250Z,9.08
2023-04-14T23:48:44.841Z,8.96
2023-04-14T23:54:02.819Z,9.08
2023-04-14T23:59:11.256Z,8.84
